createdAt,value
2018-04-10T00:02:03.096Z,56.40
2018-04-10T00:06:05.794Z,57.00
2018-04-10T00:10:08.933Z,56.20
2018-04-10T00:14:11.587Z,55.80
2018-04-10T00:18:14.252Z,55.80
2018-04-10T00:22:17.682Z,55.80
2018-04-10T00:26:21.125Z,56.30
2018-04-10T00:30:23.787Z,56.20
2018-04-10T00:34:27.219Z,56.10
2018-04-10T00:38:29.895Z,56.00
2018-04-10T00:42:32.561Z,56.30
2018-04-10T00:46:35.246Z,55.60
2018-04-10T00:50:37.915Z,55.10
2018-04-10T00:54:41.345Z,55.70
2018-04-10T00:58:44.016Z,55.10
2018-04-10T01:02:47.468Z,57.00
2018-04-10T01:06:50.132Z,56.90
2018-04-10T01:10:52.783Z,57.40
2018-04-10T01:14:55.456Z,56.90
2018-04-10T01:18:58.908Z,58.30
2018-04-10T01:23:01.583Z,58.20
2018-04-10T01:27:05.010Z,58.30
2018-04-10T01:31:07.728Z,58.20
2018-04-10T01:35:10.388Z,58.30
2018-04-10T01:39:13.057Z,58.60
2018-04-10T01:43:16.485Z,59.30
2018-04-10T01:47:19.149Z,59.30
2018-04-10T01:51:22.585Z,57.30
2018-04-10T01:55:25.263Z,57.10
2018-04-10T01:59:27.940Z,57.20
2018-04-10T02:03:31.380Z,58.10
2018-04-10T02:07:34.046Z,58.10
2018-04-10T02:11:36.713Z,58.30
2018-04-10T02:15:40.152Z,58.20
2018-04-10T02:19:42.815Z,58.10
2018-04-10T02:23:46.259Z,58.00
2018-04-10T02:27:48.955Z,58.00
2018-04-10T02:31:51.671Z,58.00
2018-04-10T02:35:54.447Z,59.70
2018-04-10T02:39:57.128Z,57.60
2018-04-10T02:43:59.794Z,56.80
2018-04-10T02:48:02.469Z,56.50
2018-04-10T02:52:05.159Z,56.40
2018-04-10T02:56:08.567Z,56.30
2018-04-10T03:00:12.044Z,56.20
2018-04-10T03:04:14.756Z,56.20
2018-04-10T03:08:18.159Z,56.20
2018-04-10T03:12:21.574Z,56.70
2018-04-10T03:16:24.949Z,56.20
2018-04-10T03:20:27.609Z,56.20
2018-04-10T03:24:30.253Z,55.70
2018-04-10T03:28:33.671Z,55.90
2018-04-10T03:32:36.315Z,55.90
2018-04-10T03:36:38.973Z,56.30
2018-04-10T03:40:41.609Z,56.40
2018-04-10T03:44:44.347Z,56.60
2018-04-10T03:48:47.003Z,56.50
2018-04-10T03:52:50.434Z,56.00
2018-04-10T03:56:53.089Z,55.90
2018-04-10T04:00:56.499Z,55.90
2018-04-10T04:04:59.143Z,55.80
2018-04-10T04:09:01.787Z,55.80
2018-04-10T04:13:05.175Z,55.80
2018-04-10T04:17:20.419Z,57.20
2018-04-10T04:21:34.968Z,56.50
2018-04-10T04:25:37.622Z,56.70
2018-04-10T04:29:41.039Z,56.20
2018-04-10T04:33:44.457Z,56.20
2018-04-10T04:37:47.105Z,56.20
2018-04-10T04:41:49.750Z,56.20
2018-04-10T04:45:52.500Z,55.90
2018-04-10T04:49:55.919Z,56.10
2018-04-10T04:53:59.294Z,56.20
2018-04-10T04:58:01.966Z,56.10
2018-04-10T05:02:04.634Z,56.40
2018-04-10T05:06:07.301Z,56.30
2018-04-10T05:10:09.944Z,56.10
2018-04-10T05:14:13.348Z,56.00
2018-04-10T05:18:16.010Z,56.00
2018-04-10T05:22:18.656Z,55.80
2018-04-10T05:26:22.069Z,56.50
2018-04-10T05:30:25.451Z,56.90
2018-04-10T05:34:28.877Z,57.00
2018-04-10T05:38:32.288Z,56.50
2018-04-10T05:42:35.764Z,56.70
2018-04-10T05:46:38.413Z,56.70
2018-04-10T05:50:41.027Z,56.60
2018-04-10T05:54:43.683Z,56.60
2018-04-10T05:58:46.339Z,56.90
2018-04-10T06:02:49.004Z,58.00
2018-04-10T06:06:51.697Z,57.40
2018-04-10T06:10:54.300Z,57.30
2018-04-10T06:14:57.714Z,58.00
2018-04-10T06:19:01.129Z,58.60
2018-04-10T06:23:04.114Z,58.50
2018-04-10T06:27:06.847Z,58.30
2018-04-10T06:31:09.586Z,58.30
2018-04-10T06:35:12.292Z,58.50
2018-04-10T06:39:15.708Z,58.80
2018-04-10T06:43:18.390Z,58.80
2018-04-10T06:47:21.106Z,58.40
2018-04-10T06:51:23.811Z,59.90
2018-04-10T06:55:26.454Z,59.40
2018-04-10T06:59:29.184Z,59.10
2018-04-10T07:03:31.860Z,58.60
2018-04-10T07:07:34.519Z,58.90
2018-04-10T07:11:37.949Z,58.60
2018-04-10T07:15:40.624Z,58.60
2018-04-10T07:19:43.336Z,57.80
2018-04-10T07:23:46.017Z,57.60
2018-04-10T07:27:48.724Z,57.70
2018-04-10T07:31:51.386Z,58.40
2018-04-10T07:35:54.051Z,59.20
2018-04-10T07:39:56.750Z,59.10
2018-04-10T07:43:59.509Z,58.00
2018-04-10T07:48:02.175Z,56.50
2018-04-10T07:52:04.844Z,55.80
2018-04-10T07:56:07.541Z,55.20
2018-04-10T08:00:10.245Z,54.90
2018-04-10T08:04:12.872Z,54.70
2018-04-10T08:08:15.502Z,53.40
2018-04-10T08:12:18.906Z,52.70
2018-04-10T08:16:21.583Z,52.60
2018-04-10T08:20:24.221Z,52.80
2018-04-10T08:24:26.828Z,52.80
2018-04-10T08:28:29.464Z,52.30
2018-04-10T08:32:32.159Z,52.30
2018-04-10T08:36:34.794Z,50.50
2018-04-10T08:40:37.485Z,50.30
2018-04-10T08:44:40.098Z,50.50
2018-04-10T08:48:42.734Z,50.60
2018-04-10T08:52:46.192Z,51.80
2018-04-10T08:56:48.898Z,51.70
2018-04-10T09:00:51.527Z,52.20
2018-04-10T09:04:54.192Z,52.30
2018-04-10T09:08:56.836Z,52.50
2018-04-10T09:12:59.484Z,52.80
2018-04-10T09:17:02.184Z,52.70
2018-04-10T09:21:04.832Z,53.20
2018-04-10T09:25:07.499Z,53.00
2018-04-10T09:29:10.148Z,53.40
2018-04-10T09:33:13.579Z,53.30
2018-04-10T09:37:16.983Z,53.40
2018-04-10T09:41:20.348Z,53.60
2018-04-10T09:45:22.994Z,53.60
2018-04-10T09:49:25.643Z,53.80
2018-04-10T09:53:28.297Z,53.90
2018-04-10T09:57:30.936Z,53.90
2018-04-10T10:01:33.543Z,54.10
2018-04-10T10:05:36.995Z,54.00
2018-04-10T10:09:39.635Z,54.00
2018-04-10T10:13:43.052Z,54.00
2018-04-10T10:17:45.695Z,54.00
2018-04-10T10:21:48.351Z,54.00
2018-04-10T10:25:50.994Z,54.00
2018-04-10T10:29:54.402Z,53.20
2018-04-10T10:33:57.807Z,53.60
2018-04-10T10:38:01.211Z,53.70
2018-04-10T10:42:04.588Z,53.50
2018-04-10T10:46:07.229Z,53.40
2018-04-10T10:50:09.956Z,54.00
2018-04-10T10:54:12.600Z,53.40
2018-04-10T10:58:15.972Z,53.70
2018-04-10T11:02:20.305Z,53.60
2018-04-10T11:06:23.724Z,53.90
2018-04-10T11:10:27.390Z,54.10
2018-04-10T11:14:30.051Z,54.00
2018-04-10T11:18:32.719Z,53.80
2018-04-10T11:22:36.122Z,53.10
2018-04-10T11:26:39.592Z,53.10
2018-04-10T11:30:42.233Z,53.00
2018-04-10T11:34:44.980Z,52.90
2018-04-10T11:38:47.603Z,53.30
2018-04-10T11:42:51.067Z,52.80
2018-04-10T11:46:53.708Z,52.80
2018-04-10T11:50:57.122Z,51.50
2018-04-10T11:54:59.734Z,51.40
2018-04-10T11:59:02.436Z,51.50
2018-04-10T12:03:05.089Z,52.50
2018-04-10T12:07:07.738Z,52.60
2018-04-10T12:11:10.380Z,52.50
2018-04-10T12:15:12.987Z,52.60
2018-04-10T12:19:15.631Z,52.40
2018-04-10T12:23:19.047Z,52.20
2018-04-10T12:27:21.692Z,52.10
2018-04-10T12:31:24.332Z,52.30
2018-04-10T12:35:26.938Z,52.50
2018-04-10T12:39:29.589Z,52.60
2018-04-10T12:43:32.999Z,52.40
2018-04-10T12:47:35.639Z,52.30
2018-04-10T12:51:38.255Z,51.50
2018-04-10T12:55:41.675Z,50.30
2018-04-10T12:59:45.089Z,51.50
2018-04-10T13:03:47.791Z,51.40
2018-04-10T13:07:50.500Z,48.70
2018-04-10T13:11:53.112Z,49.90
2018-04-10T13:15:55.811Z,49.70
2018-04-10T13:19:58.454Z,49.10
2018-04-10T13:24:01.163Z,48.50
2018-04-10T13:28:03.864Z,49.20
2018-04-10T13:32:06.814Z,48.40
2018-04-10T13:36:09.469Z,48.30
2018-04-10T13:40:12.179Z,48.80
2018-04-10T13:44:14.855Z,48.80
2018-04-10T13:48:18.297Z,48.40
2018-04-10T13:52:21.282Z,48.30
2018-04-10T13:56:23.958Z,48.20
2018-04-10T14:00:27.445Z,47.30
2018-04-10T14:04:30.116Z,47.10
2018-04-10T14:08:32.784Z,47.90
2018-04-10T14:12:35.451Z,47.80
2018-04-10T14:16:38.143Z,48.20
2018-04-10T14:20:40.852Z,47.90
2018-04-10T14:24:43.585Z,47.80
2018-04-10T14:28:46.248Z,48.00
2018-04-10T14:32:48.907Z,47.50
2018-04-10T14:36:51.587Z,46.30
2018-04-10T14:40:54.324Z,47.50
2018-04-10T14:44:56.998Z,47.80
2018-04-10T14:48:59.664Z,48.00
2018-04-10T14:53:02.335Z,46.20
2018-04-10T14:57:05.003Z,47.00
2018-04-10T15:01:08.436Z,47.70
2018-04-10T15:05:11.095Z,47.70
2018-04-10T15:09:14.873Z,45.80
2018-04-10T15:13:17.604Z,45.00
2018-04-10T15:17:21.036Z,46.20
2018-04-10T15:21:23.735Z,46.10
2018-04-10T15:25:26.396Z,47.40
2018-04-10T15:29:29.924Z,47.10
2018-04-10T15:33:32.605Z,47.10
2018-04-10T15:37:35.329Z,47.10
2018-04-10T15:41:37.994Z,46.20
2018-04-10T15:45:40.700Z,47.10
2018-04-10T15:49:43.397Z,46.80
2018-04-10T15:53:46.063Z,45.60
2018-04-10T15:57:48.773Z,44.90
2018-04-10T16:01:51.471Z,46.10
2018-04-10T16:05:55.973Z,45.70
2018-04-10T16:09:58.742Z,45.60
2018-04-10T16:14:02.226Z,45.80
2018-04-10T16:18:04.871Z,45.70
2018-04-10T16:22:07.551Z,47.10
2018-04-10T16:26:10.210Z,46.90
2018-04-10T16:30:13.640Z,47.60
2018-04-10T16:34:16.310Z,46.90
2018-04-10T16:38:19.748Z,47.20
2018-04-10T16:42:22.470Z,47.10
2018-04-10T16:46:25.114Z,47.10
2018-04-10T16:50:27.773Z,47.90
2018-04-10T16:54:30.423Z,47.80
2018-04-10T16:58:33.107Z,48.20
2018-04-10T17:02:35.759Z,48.60
2018-04-10T17:06:39.188Z,48.80
2018-04-10T17:10:41.860Z,48.80
2018-04-10T17:14:44.600Z,48.90
2018-04-10T17:18:47.272Z,49.00
2018-04-10T17:22:49.934Z,49.00
2018-04-10T17:26:52.624Z,49.20
2018-04-10T17:30:55.330Z,49.40
2018-04-10T17:34:58.001Z,49.50
2018-04-10T17:39:00.673Z,50.00
2018-04-10T17:43:04.112Z,49.60
2018-04-10T17:47:06.782Z,49.50
2018-04-10T17:51:09.455Z,49.60
2018-04-10T17:55:12.909Z,49.70
2018-04-10T17:59:15.576Z,49.70
2018-04-10T18:03:18.223Z,49.10
2018-04-10T18:07:20.895Z,49.70
2018-04-10T18:11:23.568Z,48.90
2018-04-10T18:15:26.341Z,49.70
2018-04-10T18:19:29.066Z,50.40
2018-04-10T18:23:31.780Z,49.90
2018-04-10T18:27:35.213Z,50.90
2018-04-10T18:31:37.934Z,50.70
2018-04-10T18:35:40.681Z,51.50
2018-04-10T18:39:43.538Z,51.40
2018-04-10T18:43:47.184Z,52.30
2018-04-10T18:47:49.923Z,51.80
2018-04-10T18:51:52.662Z,53.20
2018-04-10T18:55:55.533Z,52.90
2018-04-10T18:59:58.350Z,53.20
2018-04-10T19:04:01.253Z,53.10
2018-04-10T19:08:04.103Z,53.20
2018-04-10T19:12:07.111Z,53.20
2018-04-10T19:16:09.985Z,53.60
2018-04-10T19:20:12.894Z,53.60
2018-04-10T19:24:16.496Z,53.10
2018-04-10T19:28:20.033Z,52.70
2018-04-10T19:32:22.857Z,53.50
2018-04-10T19:36:26.634Z,52.80
2018-04-10T19:40:29.354Z,52.30
2018-04-10T19:44:32.040Z,52.40
2018-04-10T19:48:34.715Z,51.90
2018-04-10T19:52:37.392Z,52.70
2018-04-10T19:56:40.052Z,53.10
2018-04-10T20:00:42.802Z,53.20
2018-04-10T20:04:45.529Z,52.50
2018-04-10T20:08:48.192Z,52.60
2018-04-10T20:12:50.862Z,52.70
2018-04-10T20:16:53.545Z,52.20
2018-04-10T20:20:56.233Z,52.40
2018-04-10T20:24:59.001Z,53.40
2018-04-10T20:29:01.744Z,54.00
2018-04-10T20:33:04.512Z,53.50
2018-04-10T20:37:07.191Z,54.50
2018-04-10T20:41:10.683Z,55.60
2018-04-10T20:45:13.360Z,56.40
2018-04-10T20:49:16.049Z,55.40
2018-04-10T20:53:18.716Z,55.80
2018-04-10T20:57:21.375Z,56.40
2018-04-10T21:01:24.048Z,56.10
2018-04-10T21:05:27.556Z,56.30
2018-04-10T21:09:31.049Z,57.70
2018-04-10T21:13:33.672Z,57.80
2018-04-10T21:17:36.340Z,57.60
2018-04-10T21:21:39.048Z,57.60
2018-04-10T21:25:41.842Z,57.60
2018-04-10T21:29:44.540Z,58.80
2018-04-10T21:33:47.221Z,59.10
2018-04-10T21:37:49.910Z,59.10
2018-04-10T21:41:52.580Z,59.00
2018-04-10T21:45:56.016Z,59.90
2018-04-10T21:49:58.742Z,59.90
2018-04-10T21:54:02.221Z,60.20
2018-04-10T21:58:04.942Z,60.20
2018-04-10T22:02:07.632Z,60.20
2018-04-10T22:06:10.412Z,60.80
2018-04-10T22:10:13.093Z,60.90
2018-04-10T22:14:15.764Z,61.20
2018-04-10T22:18:18.457Z,61.80
2018-04-10T22:22:21.236Z,61.20
2018-04-10T22:26:23.907Z,61.70
2018-04-10T22:30:26.575Z,61.90
2018-04-10T22:34:29.207Z,62.40
2018-04-10T22:38:31.898Z,62.60
2018-04-10T22:42:34.581Z,62.30
2018-04-10T22:46:37.265Z,62.80
2018-04-10T22:50:39.979Z,62.90
2018-04-10T22:54:42.647Z,62.60
2018-04-10T22:58:45.328Z,63.00
2018-04-10T23:02:47.993Z,63.00
2018-04-10T23:06:50.677Z,63.80
2018-04-10T23:10:54.135Z,62.90
2018-04-10T23:14:56.819Z,62.70
2018-04-10T23:18:59.500Z,62.60
2018-04-10T23:23:02.186Z,63.00
2018-04-10T23:27:04.871Z,63.80
2018-04-10T23:31:07.535Z,63.40
2018-04-10T23:35:10.976Z,64.90
2018-04-10T23:39:13.643Z,64.00
2018-04-10T23:43:17.072Z,65.60
2018-04-10T23:47:19.972Z,64.80
2018-04-10T23:51:22.637Z,64.70
2018-04-10T23:55:26.100Z,65.90
2018-04-10T23:59:28.780Z,65.70
